Time,TemperatureF,DewpointF,PressureIn,WindDirection,WindDirectionDegrees,WindSpeedMPH,WindSpeedGustMPH,Humidity,HourlyPrecipIn,Conditions,Clouds,dailyrainin,SoftwareType,DateUTC
2013-02-20 00:13:00,37.9,32.6,29.58,ESE,112,0.0,-999.0,81,-99.99,,,0.00,Acu-Link.com,2013-02-20 08:13:00,
2013-02-20 00:29:00,37.6,32.6,29.59,ESE,112,0.0,-999.0,82,-99.99,,,0.00,Acu-Link.com,2013-02-20 08:29:00,
2013-02-20 00:44:00,37.4,32.7,29.59,ESE,112,0.0,-999.0,83,-99.99,,,0.00,Acu-Link.com,2013-02-20 08:44:00,
2013-02-20 00:59:00,37.0,32.3,29.59,ESE,112,2.2,-999.0,83,-99.99,,,0.00,Acu-Link.com,2013-02-20 08:59:00,
2013-02-20 01:18:00,37.2,32.5,29.59,ESE,112,0.0,-999.0,83,-99.99,,,0.00,Acu-Link.com,2013-02-20 09:18:00,
2013-02-20 01:33:00,36.7,32.9,29.60,ESE,112,1.1,-999.0,86,-99.99,,,0.00,Acu-Link.com,2013-02-20 09:33:00,
2013-02-20 01:48:00,36.9,33.1,29.60,ESE,112,1.7,-999.0,86,-99.99,,,0.00,Acu-Link.com,2013-02-20 09:48:00,
2013-02-20 02:03:00,37.0,33.2,29.60,ESE,112,1.1,-999.0,86,-99.99,,,0.00,Acu-Link.com,2013-02-20 10:03:00,
2013-02-20 02:18:00,37.0,33.2,29.61,ESE,112,0.0,-999.0,86,-99.99,,,0.00,Acu-Link.com,2013-02-20 10:18:00,
2013-02-20 02:33:00,36.9,33.7,29.62,ESE,112,0.0,-999.0,88,-99.99,,,0.00,Acu-Link.com,2013-02-20 10:33:00,
2013-02-20 02:48:00,36.3,33.1,29.62,ESE,112,0.0,-999.0,88,-99.99,,,0.00,Acu-Link.com,2013-02-20 10:48:00,
2013-02-20 03:03:00,36.0,33.1,29.62,ESE,112,0.0,-999.0,89,-99.99,,,0.00,Acu-Link.com,2013-02-20 11:03:00,
2013-02-20 03:18:00,36.7,32.3,29.62,ESE,112,1.7,-999.0,84,-99.99,,,0.00,Acu-Link.com,2013-02-20 11:18:00,
2013-02-20 03:34:00,37.9,33.2,29.63,ESE,112,2.7,-999.0,83,-99.99,,,0.00,Acu-Link.com,2013-02-20 11:34:00,
2013-02-20 03:49:00,38.7,33.7,29.63,ESE,112,2.2,-999.0,82,-99.99,,,0.00,Acu-Link.com,2013-02-20 11:49:00,
2013-02-20 04:04:00,38.8,33.8,29.62,ESE,112,2.7,-999.0,82,-99.99,,,0.00,Acu-Link.com,2013-02-20 12:04:00,
2013-02-20 04:19:00,38.8,34.1,29.63,ESE,112,2.2,-999.0,83,-99.99,,,0.00,Acu-Link.com,2013-02-20 12:19:00,
2013-02-20 04:34:00,39.2,34.8,29.63,ESE,112,2.7,-999.0,84,-99.99,,,0.00,Acu-Link.com,2013-02-20 12:34:00,
2013-02-20 04:49:00,39.0,34.9,29.64,ESE,112,0.0,-999.0,85,-99.99,,,0.00,Acu-Link.com,2013-02-20 12:49:00,
2013-02-20 05:04:00,39.0,34.9,29.64,ESE,112,1.1,-999.0,85,-99.99,,,0.00,Acu-Link.com,2013-02-20 13:04:00,
2013-02-20 05:19:00,39.0,35.2,29.64,ESE,112,2.2,-999.0,86,-99.99,,,0.00,Acu-Link.com,2013-02-20 13:19:00,
2013-02-20 05:34:00,39.0,34.9,29.65,ESE,112,1.7,-999.0,85,-99.99,,,0.00,Acu-Link.com,2013-02-20 13:34:00,
2013-02-20 05:49:00,39.0,34.9,29.65,ESE,112,0.0,-999.0,85,-99.99,,,0.00,Acu-Link.com,2013-02-20 13:49:00,
2013-02-20 06:05:00,37.8,34.0,29.65,ESE,112,0.0,-999.0,86,-99.99,,,0.00,Acu-Link.com,2013-02-20 14:05:00,
2013-02-20 06:20:00,37.4,33.9,29.66,ESE,112,0.0,-999.0,87,-99.99,,,0.00,Acu-Link.com,2013-02-20 14:20:00,
2013-02-20 06:35:00,37.4,33.6,29.67,ESE,112,1.1,-999.0,86,-99.99,,,0.00,Acu-Link.com,2013-02-20 14:35:00,
2013-02-20 06:50:00,37.6,33.8,29.67,ESE,112,0.0,-999.0,86,-99.99,,,0.00,Acu-Link.com,2013-02-20 14:50:00,
2013-02-20 07:05:00,36.7,33.5,29.68,ESE,112,0.0,-999.0,88,-99.99,,,0.00,Acu-Link.com,2013-02-20 15:05:00,
2013-02-20 07:20:00,36.9,33.4,29.68,ESE,112,0.0,-999.0,87,-99.99,,,0.00,Acu-Link.com,2013-02-20 15:20:00,
2013-02-20 07:35:00,37.6,34.1,29.69,ESE,112,0.0,-999.0,87,-99.99,,,0.00,Acu-Link.com,2013-02-20 15:35:00,
2013-02-20 07:50:00,42.4,35.7,29.70,ESE,112,2.2,-999.0,77,-99.99,,,0.00,Acu-Link.com,2013-02-20 15:50:00,
2013-02-20 08:05:00,46.0,35.7,29.70,ESE,112,0.0,-999.0,67,-99.99,,,0.00,Acu-Link.com,2013-02-20 16:05:00,
2013-02-20 08:21:00,46.0,36.0,29.71,ESE,112,0.0,-999.0,68,-99.99,,,0.00,Acu-Link.com,2013-02-20 16:21:00,
2013-02-20 08:36:00,46.2,34.3,29.71,ESE,112,2.2,-999.0,63,-99.99,,,0.00,Acu-Link.com,2013-02-20 16:36:00,
2013-02-20 08:51:00,48.6,34.9,29.71,ESE,112,0.0,-999.0,59,-99.99,,,0.00,Acu-Link.com,2013-02-20 16:51:00,
2013-02-20 09:06:00,51.4,37.1,29.72,ESE,112,2.2,-999.0,58,-99.99,,,0.00,Acu-Link.com,2013-02-20 17:06:00,
2013-02-20 09:21:00,52.3,37.1,29.73,ESE,112,2.2,-999.0,56,-99.99,,,0.00,Acu-Link.com,2013-02-20 17:21:00,
2013-02-20 09:36:00,49.8,35.2,29.73,ESE,112,1.7,-999.0,57,-99.99,,,0.00,Acu-Link.com,2013-02-20 17:36:00,
2013-02-20 09:52:00,52.9,36.7,29.73,ESE,112,2.2,-999.0,54,-99.99,,,0.00,Acu-Link.com,2013-02-20 17:52:00,
2013-02-20 10:07:00,51.8,36.6,29.74,ESE,112,1.7,-999.0,56,-99.99,,,0.00,Acu-Link.com,2013-02-20 18:07:00,
2013-02-20 10:22:00,54.3,38.0,29.74,ESE,112,1.1,-999.0,54,-99.99,,,0.00,Acu-Link.com,2013-02-20 18:22:00,
2013-02-20 10:37:00,56.3,38.9,29.74,ESE,112,1.7,-999.0,52,-99.99,,,0.00,Acu-Link.com,2013-02-20 18:37:00,
2013-02-20 10:52:00,55.6,39.2,29.74,ESE,112,2.2,-999.0,54,-99.99,,,0.00,Acu-Link.com,2013-02-20 18:52:00,
2013-02-20 11:07:00,57.0,39.1,29.74,ESE,112,1.7,-999.0,51,-99.99,,,0.00,Acu-Link.com,2013-02-20 19:07:00,
2013-02-20 11:22:00,55.9,39.5,29.75,ESE,112,1.7,-999.0,54,-99.99,,,0.00,Acu-Link.com,2013-02-20 19:22:00,
2013-02-20 11:37:00,55.6,40.2,29.74,ESE,112,2.7,-999.0,56,-99.99,,,0.00,Acu-Link.com,2013-02-20 19:37:00,
2013-02-20 11:52:00,56.1,39.7,29.74,SW,225,1.1,-999.0,54,-99.99,,,0.00,Acu-Link.com,2013-02-20 19:52:00,
2013-02-20 12:07:00,56.1,39.7,29.74,SW,225,2.7,-999.0,54,-99.99,,,0.00,Acu-Link.com,2013-02-20 20:07:00,
2013-02-20 12:23:00,56.5,39.1,29.74,SW,225,2.2,-999.0,52,-99.99,,,0.00,Acu-Link.com,2013-02-20 20:23:00,
2013-02-20 12:38:00,57.2,39.7,29.73,North,0,3.7,-999.0,52,-99.99,,,0.00,Acu-Link.com,2013-02-20 20:38:00,
2013-02-20 12:53:00,55.8,38.9,29.73,North,0,2.2,-999.0,53,-99.99,,,0.00,Acu-Link.com,2013-02-20 20:53:00,
2013-02-20 13:08:00,56.5,39.6,29.73,North,0,2.7,-999.0,53,-99.99,,,0.00,Acu-Link.com,2013-02-20 21:08:00,
2013-02-20 13:23:00,56.5,41.5,29.74,North,0,1.1,-999.0,57,-99.99,,,0.00,Acu-Link.com,2013-02-20 21:23:00,
2013-02-20 13:38:00,55.9,41.8,29.72,SSW,202,3.2,-999.0,59,-99.99,,,0.00,Acu-Link.com,2013-02-20 21:38:00,
2013-02-20 13:54:00,55.9,41.8,29.72,NNE,22,2.2,-999.0,59,-99.99,,,0.00,Acu-Link.com,2013-02-20 21:54:00,
2013-02-20 14:09:00,56.1,42.8,29.72,SSW,202,3.2,-999.0,61,-99.99,,,0.00,Acu-Link.com,2013-02-20 22:09:00,
2013-02-20 14:24:00,55.8,42.1,29.71,SSW,202,4.2,-999.0,60,-99.99,,,0.00,Acu-Link.com,2013-02-20 22:24:00,
2013-02-20 14:39:00,56.3,42.2,29.71,SSW,202,1.7,-999.0,59,-99.99,,,0.00,Acu-Link.com,2013-02-20 22:39:00,
2013-02-20 14:54:00,55.2,42.0,29.71,SSW,202,2.2,-999.0,61,-99.99,,,0.00,Acu-Link.com,2013-02-20 22:54:00,
2013-02-20 15:09:00,56.1,42.4,29.72,SSW,202,2.2,-999.0,60,-99.99,,,0.00,Acu-Link.com,2013-02-20 23:09:00,
2013-02-20 15:24:00,54.9,42.1,29.72,SSW,202,3.7,-999.0,62,-99.99,,,0.00,Acu-Link.com,2013-02-20 23:24:00,
2013-02-20 15:39:00,54.3,43.2,29.72,SSW,202,2.2,-999.0,66,-99.99,,,0.00,Acu-Link.com,2013-02-20 23:39:00,
2013-02-20 15:54:00,53.4,42.7,29.72,SSW,202,2.7,-999.0,67,-99.99,,,0.00,Acu-Link.com,2013-02-20 23:54:00,
2013-02-20 16:10:00,52.7,42.8,29.72,ESE,112,2.2,-999.0,69,-99.99,,,0.00,Acu-Link.com,2013-02-21 00:10:00,
2013-02-20 16:25:00,51.6,42.5,29.73,East,90,1.7,-999.0,71,-99.99,,,0.00,Acu-Link.com,2013-02-21 00:25:00,
2013-02-20 16:40:00,51.1,42.8,29.73,East,90,1.7,-999.0,73,-99.99,,,0.00,Acu-Link.com,2013-02-21 00:40:00,
2013-02-20 16:55:00,50.5,42.5,29.73,East,90,1.7,-999.0,74,-99.99,,,0.00,Acu-Link.com,2013-02-21 00:55:00,
2013-02-20 17:10:00,50.2,42.2,29.72,East,90,2.2,-999.0,74,-99.99,,,0.00,Acu-Link.com,2013-02-21 01:10:00,
2013-02-20 17:25:00,49.5,42.3,29.73,SSW,202,1.7,-999.0,76,-99.99,,,0.00,Acu-Link.com,2013-02-21 01:25:00,
2013-02-20 17:40:00,48.9,41.7,29.73,SSW,202,1.7,-999.0,76,-99.99,,,0.00,Acu-Link.com,2013-02-21 01:40:00,
2013-02-20 17:55:00,48.4,41.2,29.73,SSW,202,1.1,-999.0,76,-99.99,,,0.00,Acu-Link.com,2013-02-21 01:55:00,
2013-02-20 18:10:00,48.0,41.1,29.74,SSW,202,1.7,-999.0,77,-99.99,,,0.00,Acu-Link.com,2013-02-21 02:10:00,
2013-02-20 18:26:00,47.7,40.8,29.74,ESE,112,2.2,-999.0,77,-99.99,,,0.00,Acu-Link.com,2013-02-21 02:26:00,
2013-02-20 18:41:00,47.5,40.3,29.74,ESE,112,2.2,-999.0,76,-99.99,,,0.00,Acu-Link.com,2013-02-21 02:41:00,
2013-02-20 18:56:00,47.1,40.3,29.74,SW,225,2.2,-999.0,77,-99.99,,,0.00,Acu-Link.com,2013-02-21 02:56:00,
2013-02-20 19:11:00,46.8,40.6,29.74,SW,225,3.2,-999.0,79,-99.99,,,0.00,Acu-Link.com,2013-02-21 03:11:00,
2013-02-20 19:26:00,46.8,40.6,29.75,SSW,202,2.2,-999.0,79,-99.99,,,0.00,Acu-Link.com,2013-02-21 03:26:00,
2013-02-20 19:41:00,46.6,40.1,29.75,SSW,202,2.2,-999.0,78,-99.99,,,0.00,Acu-Link.com,2013-02-21 03:41:00,
2013-02-20 19:56:00,46.4,39.9,29.76,SSW,202,2.7,-999.0,78,-99.99,,,0.00,Acu-Link.com,2013-02-21 03:56:00,
2013-02-20 20:11:00,46.4,39.9,29.76,SSW,202,5.3,-999.0,78,-99.99,,,0.00,Acu-Link.com,2013-02-21 04:11:00,
2013-02-20 20:26:00,46.2,39.7,29.76,SSW,202,2.7,-999.0,78,-99.99,,,0.00,Acu-Link.com,2013-02-21 04:26:00,
2013-02-20 20:42:00,46.0,39.9,29.77,SSW,202,1.7,-999.0,79,-99.99,,,0.00,Acu-Link.com,2013-02-21 04:42:00,
2013-02-20 20:57:00,45.5,39.7,29.78,SSW,202,1.7,-999.0,80,-99.99,,,0.00,Acu-Link.com,2013-02-21 04:57:00,
2013-02-20 21:12:00,45.3,39.8,29.78,SSW,202,1.1,-999.0,81,-99.99,,,0.00,Acu-Link.com,2013-02-21 05:12:00,
2013-02-20 21:27:00,45.3,39.5,29.79,SSW,202,1.1,-999.0,80,-99.99,,,0.00,Acu-Link.com,2013-02-21 05:27:00,
2013-02-20 21:42:00,45.3,39.2,29.79,SSW,202,2.2,-999.0,79,-99.99,,,0.00,Acu-Link.com,2013-02-21 05:42:00,
2013-02-20 21:57:00,45.1,39.9,29.80,SSW,202,0.0,-999.0,82,-99.99,,,0.00,Acu-Link.com,2013-02-21 05:57:00,
2013-02-20 22:12:00,45.0,39.5,29.80,SSW,202,1.1,-999.0,81,-99.99,,,0.00,Acu-Link.com,2013-02-21 06:12:00,
2013-02-20 22:27:00,44.6,38.8,29.80,SSW,202,1.1,-999.0,80,-99.99,,,0.00,Acu-Link.com,2013-02-21 06:27:00,
2013-02-20 22:43:00,44.4,38.6,29.79,SSW,202,1.7,-999.0,80,-99.99,,,0.00,Acu-Link.com,2013-02-21 06:43:00,
2013-02-20 22:58:00,44.4,38.6,29.79,SSW,202,0.0,-999.0,80,-99.99,,,0.00,Acu-Link.com,2013-02-21 06:58:00,
2013-02-20 23:13:00,44.1,38.3,29.80,SSW,202,2.2,-999.0,80,-99.99,,,0.00,Acu-Link.com,2013-02-21 07:13:00,
2013-02-20 23:28:00,44.1,38.6,29.79,SSW,202,1.1,-999.0,81,-99.99,,,0.00,Acu-Link.com,2013-02-21 07:28:00,
2013-02-20 23:43:00,43.9,38.8,29.79,SSW,202,1.7,-999.0,82,-99.99,,,0.00,Acu-Link.com,2013-02-21 07:43:00,
2013-02-20 23:58:00,43.9,39.1,29.80,SSW,202,1.1,-999.0,83,-99.99,,,0.00,Acu-Link.com,2013-02-21 07:58:00,